Airfield :







YOU CAN JOIN US ON...

 
LOGIN :

Register | Disclaimer

   EN    FR    IT 

 









Legend :    VFR   Marginal VFR   IFR   Intensive IFR   Very Intensive IFR
Visi :
Ceiling :
>= 8 km
>= 3000ft
5 to 8 km
1000 to 3000 ft
1500m to 5 km
500 to 1000 ft
800 to 1500m
200 to 500 ft
< 800m
< 200 ft
Symbols :   Thunderstorms  Fog  Heavy snow  Heavy precipitations  Wind > 20 kt







- Airport Elevation : 1709 ft
- IATA code : YKL


CYKL - Schefferville

CURRENT METAR :
  • 261116Z AUTO 26016G26KT 1 1/4SM -SN OVC034 M24/M28 A2935 RMK SLP006

EXPIRED METARs :
  • 261100Z AUTO 26021G27KT 1SM -SN OVC036 M24/M28 A2935 RMK SLP003
  • 261000Z AUTO 26017G26KT 3/4SM -SN OVC038 M24/M29 A2935 RMK SLP002
  • 260942Z AUTO 25020G27KT 1SM -SN OVC040 M24/M29 A2935 RMK SLP002
  • 260900Z AUTO 25017G22KT 1 1/2SM -SN OVC038 M25/M29 A2935 RMK SLP004

TAF TAF CYKL
Valid from the 26 at 08:00 until the 26 at 20:00 UTC


260739Z 2608/2620 26018G28KT 6SM -SN BLSN SCT020 BKN040
TEMPO 2608/2618 1SM -SN BLSN BKN020 OVC040
FM261800 30018G28KT 6SM -SN BLSN BKN040
TEMPO 2618/2620 2SM -SN BLSN
PROB30 2618/2620 1SM -SN BLSN RMK FCST BASED ON AUTO OBS. NXT FCST BY 261400Z
CZUL FIR / North America



MET'MAP, your aeronautical weather chart ! - Copyright ORBIFLY December 2007 - Disclaimer

ORBIFLY MET'MAP TEAM :

Programming & Development : Alexandra Zaïnal
Concept & Development : Baudouin d'Aumeries
Co-Development & Prog : Marc-Olivier Méhu
Technical & hardware support : Manuel Goepfert

Contact : metmap@orbifly.com




SOURCES & CREDITS :

   NOAA